createdAt,value
2023-04-20T00:02:07.645Z,1.60
2023-04-20T00:04:36.671Z,1.45
2023-04-20T00:07:05.359Z,1.30
2023-04-20T00:09:33.718Z,1.55
2023-04-20T00:12:03.724Z,1.30
2023-04-20T00:14:34.474Z,1.95
2023-04-20T00:17:02.878Z,2.13
2023-04-20T00:19:34.081Z,1.63
2023-04-20T00:22:02.419Z,1.52
2023-04-20T00:24:30.857Z,1.27
2023-04-20T00:26:59.481Z,1.30
2023-04-20T00:29:29.211Z,1.55
2023-04-20T00:31:58.954Z,1.70
2023-04-20T00:34:27.514Z,1.58
2023-04-20T00:36:55.982Z,1.30
2023-04-20T00:39:27.802Z,1.27
2023-04-20T00:41:56.972Z,1.65
2023-04-20T00:44:28.081Z,1.27
2023-04-20T00:47:00.979Z,1.45
2023-04-20T00:49:30.892Z,1.60
2023-04-20T00:51:59.993Z,1.70
2023-04-20T00:54:29.126Z,1.30
2023-04-20T00:56:57.945Z,1.50
2023-04-20T00:59:26.414Z,1.63
2023-04-20T01:01:54.974Z,1.33
2023-04-20T01:04:24.867Z,1.52
2023-04-20T01:06:53.315Z,1.60
2023-04-20T01:09:24.119Z,1.67
2023-04-20T01:11:52.667Z,1.20
2023-04-20T01:14:21.116Z,1.48
2023-04-20T01:16:49.643Z,1.75
2023-04-20T01:19:18.366Z,1.55
2023-04-20T01:21:48.567Z,1.50
2023-04-20T01:24:19.193Z,1.95
2023-04-20T01:26:47.540Z,1.75
2023-04-20T01:29:18.475Z,2.05
2023-04-20T01:31:47.398Z,2.03
2023-04-20T01:34:17.596Z,1.77
2023-04-20T01:36:46.910Z,1.63
2023-04-20T01:39:15.552Z,1.98
2023-04-20T01:41:45.695Z,1.88
2023-04-20T01:44:14.058Z,1.70
2023-04-20T01:46:42.485Z,1.80
2023-04-20T01:49:10.982Z,1.65
2023-04-20T01:51:39.408Z,1.80
2023-04-20T01:54:12.820Z,1.70
2023-04-20T01:56:43.617Z,1.50
2023-04-20T01:59:13.359Z,2.17
2023-04-20T02:01:41.770Z,1.90
2023-04-20T02:04:10.767Z,1.90
2023-04-20T02:06:41.917Z,1.90
2023-04-20T02:09:11.438Z,1.98
2023-04-20T02:11:39.787Z,2.00
2023-04-20T02:14:08.405Z,2.03
2023-04-20T02:16:38.671Z,2.67
2023-04-20T02:19:07.340Z,2.15
2023-04-20T02:21:35.895Z,2.42
2023-04-20T02:24:04.654Z,1.90
2023-04-20T02:26:32.968Z,2.40
2023-04-20T02:29:01.880Z,2.35
2023-04-20T02:31:30.381Z,2.10
2023-04-20T02:34:00.056Z,2.40
2023-04-20T02:36:29.693Z,2.25
2023-04-20T02:38:58.205Z,2.42
2023-04-20T02:41:28.702Z,2.40
2023-04-20T02:43:57.351Z,2.67
2023-04-20T02:46:27.161Z,2.70
2023-04-20T02:48:56.447Z,2.22
2023-04-20T02:51:26.788Z,2.42
2023-04-20T02:53:56.023Z,2.53
2023-04-20T02:56:28.813Z,3.08
2023-04-20T02:59:01.979Z,2.60
2023-04-20T03:01:37.530Z,2.70
2023-04-20T03:04:12.843Z,2.90
2023-04-20T03:06:51.543Z,2.88
2023-04-20T03:09:25.469Z,3.03
2023-04-20T03:12:12.775Z,2.53
2023-04-20T03:14:56.325Z,2.83
2023-04-20T03:17:33.636Z,2.72
2023-04-20T03:20:02.402Z,2.63
2023-04-20T03:22:32.073Z,2.20
2023-04-20T03:25:02.844Z,2.67
2023-04-20T03:27:47.526Z,3.28
2023-04-20T03:30:16.930Z,2.97
2023-04-20T03:32:48.567Z,3.15
2023-04-20T03:35:17.690Z,2.38
2023-04-20T03:37:47.610Z,2.38
2023-04-20T03:40:16.143Z,3.05
2023-04-20T03:42:44.471Z,2.85
2023-04-20T03:45:13.269Z,2.78
2023-04-20T03:47:41.834Z,2.67
2023-04-20T03:50:10.525Z,2.65
2023-04-20T03:52:41.004Z,2.53
2023-04-20T03:55:12.834Z,2.72
2023-04-20T03:57:47.279Z,2.60
2023-04-20T04:00:16.414Z,3.08
2023-04-20T04:02:47.934Z,3.25
2023-04-20T04:05:22.868Z,2.80
2023-04-20T04:07:51.708Z,2.03
2023-04-20T04:10:21.835Z,3.05
2023-04-20T04:12:50.938Z,2.70
2023-04-20T04:15:20.189Z,2.78
2023-04-20T04:17:55.677Z,2.50
2023-04-20T04:20:24.521Z,2.47
2023-04-20T04:22:53.526Z,2.58
2023-04-20T04:25:36.063Z,2.58
2023-04-20T04:28:04.453Z,2.65
2023-04-20T04:30:34.968Z,2.83
2023-04-20T04:33:04.921Z,2.70
2023-04-20T04:35:35.467Z,2.60
2023-04-20T04:38:04.586Z,3.67
2023-04-20T04:40:33.979Z,2.50
2023-04-20T04:43:05.659Z,2.88
2023-04-20T04:45:39.653Z,2.90
2023-04-20T04:48:09.115Z,2.40
2023-04-20T04:50:37.674Z,2.08
2023-04-20T04:53:06.037Z,3.42
2023-04-20T04:55:36.797Z,3.15
2023-04-20T04:58:06.465Z,2.28
2023-04-20T05:00:34.957Z,3.03
2023-04-20T05:03:04.073Z,3.50
2023-04-20T05:05:32.428Z,2.75
2023-04-20T05:08:00.952Z,2.30
2023-04-20T05:10:29.863Z,2.40
2023-04-20T05:12:59.736Z,2.58
2023-04-20T05:15:29.708Z,2.17
2023-04-20T05:17:58.156Z,2.40
2023-04-20T05:20:26.862Z,2.00
2023-04-20T05:22:55.083Z,2.22
2023-04-20T05:25:23.712Z,2.35
2023-04-20T05:27:52.004Z,2.20
2023-04-20T05:30:21.737Z,2.25
2023-04-20T05:32:54.568Z,1.58
2023-04-20T05:35:22.992Z,1.60
2023-04-20T05:37:51.729Z,1.48
2023-04-20T05:40:24.584Z,1.20
2023-04-20T05:42:52.921Z,1.42
2023-04-20T05:45:21.185Z,1.52
2023-04-20T05:47:57.429Z,1.50
2023-04-20T05:50:25.950Z,1.00
2023-04-20T05:52:54.235Z,1.48
2023-04-20T05:55:23.137Z,1.20
2023-04-20T05:57:53.237Z,1.35
2023-04-20T06:00:25.248Z,1.25
2023-04-20T06:02:55.661Z,1.85
2023-04-20T06:05:25.822Z,1.50
2023-04-20T06:07:54.206Z,1.65
2023-04-20T06:10:22.747Z,1.70
2023-04-20T06:12:51.077Z,1.60
2023-04-20T06:15:19.535Z,1.73
2023-04-20T06:17:48.174Z,1.75
2023-04-20T06:20:16.823Z,1.38
2023-04-20T06:22:46.980Z,1.13
2023-04-20T06:25:16.083Z,1.75
2023-04-20T06:27:44.605Z,1.27
2023-04-20T06:30:13.639Z,1.40
2023-04-20T06:32:42.288Z,1.70
2023-04-20T06:35:10.948Z,1.95
2023-04-20T06:37:40.315Z,1.63
2023-04-20T06:40:10.394Z,1.60
2023-04-20T06:42:38.835Z,1.55
2023-04-20T06:45:07.556Z,1.60
2023-04-20T06:47:36.180Z,1.70
2023-04-20T06:50:09.065Z,1.50
2023-04-20T06:52:38.758Z,1.80
2023-04-20T06:55:07.487Z,1.67
2023-04-20T06:57:38.473Z,1.48
2023-04-20T07:00:08.520Z,1.77
2023-04-20T07:02:44.290Z,1.58
2023-04-20T07:05:12.851Z,1.50
2023-04-20T07:07:41.258Z,1.65
2023-04-20T07:10:09.861Z,1.90
2023-04-20T07:12:41.580Z,1.95
2023-04-20T07:15:11.876Z,1.80
2023-04-20T07:17:40.489Z,1.80
2023-04-20T07:20:09.534Z,1.90
2023-04-20T07:22:38.065Z,1.40
2023-04-20T07:25:07.406Z,1.60
2023-04-20T07:27:37.495Z,1.80
2023-04-20T07:30:09.101Z,2.42
2023-04-20T07:32:37.919Z,1.88
2023-04-20T07:35:06.887Z,1.70
2023-04-20T07:37:35.324Z,1.80
2023-04-20T07:40:06.108Z,1.95
2023-04-20T07:42:35.092Z,1.70
2023-04-20T07:45:03.590Z,2.20
2023-04-20T07:47:33.381Z,1.85
2023-04-20T07:50:02.079Z,2.63
2023-04-20T07:52:30.768Z,2.22
2023-04-20T07:54:59.881Z,2.03
2023-04-20T07:57:28.810Z,1.70
2023-04-20T07:59:57.246Z,2.05
2023-04-20T08:02:25.712Z,1.90
2023-04-20T08:04:56.108Z,1.95
2023-04-20T08:07:25.257Z,1.90
2023-04-20T08:09:54.078Z,2.30
2023-04-20T08:12:22.627Z,2.42
2023-04-20T08:14:51.895Z,2.70
2023-04-20T08:17:20.885Z,1.92
2023-04-20T08:19:49.402Z,1.88
2023-04-20T08:22:19.234Z,2.38
2023-04-20T08:24:47.885Z,2.35
2023-04-20T08:27:17.381Z,2.15
2023-04-20T08:29:46.093Z,2.17
2023-04-20T08:32:15.508Z,2.22
2023-04-20T08:34:43.938Z,2.40
2023-04-20T08:37:12.550Z,2.28
2023-04-20T08:39:42.347Z,2.90
2023-04-20T08:42:10.987Z,2.80
2023-04-20T08:44:39.448Z,2.55
2023-04-20T08:47:08.033Z,2.53
2023-04-20T08:49:36.683Z,2.25
2023-04-20T08:52:05.448Z,2.20
2023-04-20T08:54:35.303Z,2.22
2023-04-20T08:57:07.106Z,2.92
2023-04-20T08:59:35.808Z,2.70
2023-04-20T09:02:12.004Z,2.45
2023-04-20T09:04:41.202Z,2.50
2023-04-20T09:07:18.497Z,2.50
2023-04-20T09:09:55.900Z,2.60
2023-04-20T09:12:25.783Z,2.53
2023-04-20T09:14:54.890Z,2.60
2023-04-20T09:17:32.724Z,2.60
2023-04-20T09:20:01.663Z,2.40
2023-04-20T09:22:33.425Z,2.47
2023-04-20T09:25:02.069Z,2.28
2023-04-20T09:27:32.609Z,2.47
2023-04-20T09:30:01.427Z,2.38
2023-04-20T09:32:30.318Z,2.72
2023-04-20T09:34:58.913Z,2.55
2023-04-20T09:37:27.398Z,2.88
2023-04-20T09:39:57.253Z,2.33
2023-04-20T09:42:29.297Z,2.58
2023-04-20T09:45:02.479Z,2.33
2023-04-20T09:47:31.388Z,2.90
2023-04-20T09:50:14.085Z,2.50
2023-04-20T09:52:51.460Z,2.88
2023-04-20T09:55:21.177Z,2.33
2023-04-20T09:57:50.260Z,2.40
2023-04-20T10:00:20.912Z,2.80
2023-04-20T10:02:49.601Z,2.90
2023-04-20T10:05:18.107Z,2.97
2023-04-20T10:07:46.748Z,2.90
2023-04-20T10:10:16.083Z,2.58
2023-04-20T10:12:51.083Z,2.45
2023-04-20T10:15:21.820Z,3.22
2023-04-20T10:17:51.112Z,2.80
2023-04-20T10:20:20.593Z,2.60
2023-04-20T10:22:48.976Z,2.25
2023-04-20T10:25:18.471Z,3.03
2023-04-20T10:27:57.117Z,3.17
2023-04-20T10:30:28.220Z,2.20
2023-04-20T10:33:07.519Z,2.50
2023-04-20T10:35:46.431Z,2.70
2023-04-20T10:38:15.050Z,2.80
2023-04-20T10:40:43.675Z,3.05
2023-04-20T10:43:22.420Z,2.55
2023-04-20T10:45:52.372Z,2.90
2023-04-20T10:48:21.789Z,2.83
2023-04-20T10:50:50.078Z,2.78
2023-04-20T10:53:21.676Z,3.03
2023-04-20T10:56:00.110Z,2.80
2023-04-20T10:58:28.814Z,3.70
2023-04-20T11:01:03.225Z,3.05
2023-04-20T11:03:34.278Z,3.03
2023-04-20T11:06:04.141Z,2.83
2023-04-20T11:08:39.872Z,2.67
2023-04-20T11:11:19.145Z,3.47
2023-04-20T11:13:47.864Z,3.33
2023-04-20T11:16:18.504Z,3.80
2023-04-20T11:18:51.970Z,2.85
2023-04-20T11:21:20.792Z,2.78
2023-04-20T11:23:49.795Z,3.83
2023-04-20T11:26:18.872Z,3.13
2023-04-20T11:28:55.894Z,3.13
2023-04-20T11:31:28.098Z,3.35
2023-04-20T11:33:57.433Z,3.40
2023-04-20T11:36:26.813Z,3.40
2023-04-20T11:38:56.519Z,4.10
2023-04-20T11:41:24.969Z,3.15
2023-04-20T11:43:54.629Z,3.13
2023-04-20T11:46:23.243Z,3.38
2023-04-20T11:48:53.249Z,3.40
2023-04-20T11:51:21.577Z,3.63
2023-04-20T11:53:49.932Z,3.63
2023-04-20T11:56:18.496Z,3.30
2023-04-20T11:58:46.912Z,3.40
2023-04-20T12:01:16.923Z,3.00
2023-04-20T12:03:47.696Z,3.20
2023-04-20T12:06:17.844Z,3.75
2023-04-20T12:08:47.967Z,3.28
2023-04-20T12:11:16.914Z,3.78
2023-04-20T12:13:45.363Z,3.00
2023-04-20T12:16:13.860Z,2.95
2023-04-20T12:18:42.352Z,3.22
2023-04-20T12:21:10.755Z,3.03
2023-04-20T12:23:40.738Z,3.42
2023-04-20T12:26:09.351Z,2.60
2023-04-20T12:28:38.029Z,3.03
2023-04-20T12:31:07.774Z,3.47
2023-04-20T12:33:36.099Z,3.58
2023-04-20T12:36:04.380Z,3.03
2023-04-20T12:38:32.832Z,3.05
2023-04-20T12:41:02.550Z,3.50
2023-04-20T12:43:31.148Z,3.50
2023-04-20T12:46:00.087Z,3.63
2023-04-20T12:48:30.540Z,3.35
2023-04-20T12:50:58.960Z,3.25
2023-04-20T12:53:27.888Z,3.08
2023-04-20T12:56:01.109Z,3.63
2023-04-20T12:58:31.797Z,3.88
2023-04-20T13:01:00.439Z,3.30
2023-04-20T13:03:29.133Z,3.25
2023-04-20T13:05:57.678Z,3.42
2023-04-20T13:08:26.104Z,2.83
2023-04-20T13:10:54.467Z,3.10
2023-04-20T13:13:22.966Z,3.17
2023-04-20T13:15:55.194Z,3.28
2023-04-20T13:18:24.593Z,3.28
2023-04-20T13:20:52.959Z,3.67
2023-04-20T13:23:21.297Z,2.95
2023-04-20T13:25:49.633Z,3.13
2023-04-20T13:28:18.050Z,3.30
2023-04-20T13:30:46.617Z,3.78
2023-04-20T13:33:16.579Z,3.67
2023-04-20T13:35:45.020Z,3.67
2023-04-20T13:38:13.474Z,3.83
2023-04-20T13:40:42.018Z,3.80
2023-04-20T13:43:10.694Z,3.83
2023-04-20T13:45:39.142Z,3.08
2023-04-20T13:48:07.828Z,3.33
2023-04-20T13:50:37.640Z,3.47
2023-04-20T13:53:06.086Z,4.15
2023-04-20T13:55:34.639Z,4.20
2023-04-20T13:58:03.014Z,4.10
2023-04-20T14:03:00.123Z,3.80
2023-04-20T14:05:28.699Z,3.72
2023-04-20T14:08:01.392Z,3.55
2023-04-20T14:10:29.978Z,3.42
2023-04-20T14:12:58.605Z,3.20
2023-04-20T14:15:27.292Z,3.75
2023-04-20T14:17:55.854Z,3.90
2023-04-20T14:20:24.425Z,3.38
2023-04-20T14:22:53.053Z,3.10
2023-04-20T14:25:22.869Z,3.13
2023-04-20T14:27:51.221Z,3.15
2023-04-20T14:30:19.622Z,3.13
2023-04-20T14:32:55.321Z,3.47
2023-04-20T14:35:24.124Z,3.17
2023-04-20T14:37:52.665Z,2.92
2023-04-20T14:40:21.359Z,2.90
2023-04-20T14:42:51.050Z,2.42
2023-04-20T14:45:19.509Z,2.63
2023-04-20T14:47:48.241Z,3.35
2023-04-20T14:50:16.770Z,2.65
2023-04-20T14:52:47.170Z,2.90
2023-04-20T14:55:15.431Z,2.80
2023-04-20T14:57:44.201Z,2.80
2023-04-20T15:00:14.504Z,2.70
2023-04-20T15:02:43.066Z,3.22
2023-04-20T15:05:11.705Z,2.90
2023-04-20T15:07:40.103Z,2.88
2023-04-20T15:10:09.250Z,3.17
2023-04-20T15:12:37.878Z,3.00
2023-04-20T15:15:06.700Z,3.17
2023-04-20T15:17:36.728Z,2.90
2023-04-20T15:20:05.353Z,2.80
2023-04-20T15:22:33.632Z,3.38
2023-04-20T15:25:02.659Z,3.10
2023-04-20T15:27:31.161Z,3.28
2023-04-20T15:29:59.960Z,3.58
2023-04-20T15:32:30.120Z,3.53
2023-04-20T15:35:00.256Z,3.47
2023-04-20T15:37:30.415Z,3.03
2023-04-20T15:40:00.279Z,3.53
2023-04-20T15:42:29.009Z,3.25
2023-04-20T15:44:57.413Z,3.78
2023-04-20T15:47:25.839Z,3.90
2023-04-20T15:50:01.325Z,3.60
2023-04-20T15:52:33.690Z,3.58
2023-04-20T15:55:02.198Z,3.83
2023-04-20T15:57:31.517Z,4.20
2023-04-20T15:59:59.944Z,3.40
2023-04-20T16:02:29.047Z,3.75
2023-04-20T16:04:57.580Z,3.25
2023-04-20T16:07:25.979Z,3.25
2023-04-20T16:09:55.954Z,3.95
2023-04-20T16:12:24.226Z,3.95
2023-04-20T16:14:53.819Z,4.28
2023-04-20T16:17:22.667Z,3.90
2023-04-20T16:19:51.106Z,3.92
2023-04-20T16:22:19.479Z,3.75
2023-04-20T16:24:48.084Z,3.47
2023-04-20T16:27:18.892Z,4.18
2023-04-20T16:29:47.179Z,4.40
2023-04-20T16:32:15.715Z,4.40
2023-04-20T16:34:44.011Z,3.38
2023-04-20T16:37:18.575Z,4.32
2023-04-20T16:39:47.222Z,4.05
2023-04-20T16:42:15.916Z,3.60
2023-04-20T16:44:45.777Z,3.60
2023-04-20T16:47:14.277Z,3.72
2023-04-20T16:49:42.588Z,3.28
2023-04-20T16:52:11.050Z,3.83
2023-04-20T16:54:41.606Z,4.07
2023-04-20T16:57:09.910Z,3.53
2023-04-20T16:59:38.253Z,3.80
2023-04-20T17:02:08.254Z,3.67
2023-04-20T17:04:36.777Z,4.22
2023-04-20T17:07:05.157Z,4.13
2023-04-20T17:09:33.865Z,3.67
2023-04-20T17:12:02.219Z,3.80
2023-04-20T17:14:32.236Z,3.33
2023-04-20T17:17:00.763Z,3.70
2023-04-20T17:19:31.495Z,3.67
2023-04-20T17:22:00.016Z,3.90
2023-04-20T17:24:28.675Z,4.30
2023-04-20T17:26:57.144Z,3.60
2023-04-20T17:29:25.606Z,3.70
2023-04-20T17:31:54.051Z,3.30
2023-04-20T17:34:23.236Z,3.42
2023-04-20T17:36:52.910Z,3.13
2023-04-20T17:39:21.666Z,4.03
2023-04-20T17:41:50.043Z,3.97
2023-04-20T17:44:18.774Z,4.18
2023-04-20T17:46:47.423Z,4.18
2023-04-20T17:49:15.816Z,4.00
2023-04-20T17:51:44.290Z,4.20
2023-04-20T17:54:14.067Z,3.80
2023-04-20T17:56:42.353Z,4.53
2023-04-20T17:59:12.135Z,3.70
2023-04-20T18:01:40.745Z,4.20
2023-04-20T18:04:09.463Z,3.78
2023-04-20T18:06:37.994Z,4.15
2023-04-20T18:09:06.352Z,3.75
2023-04-20T18:11:35.962Z,3.92
2023-04-20T18:14:04.263Z,3.45
2023-04-20T18:16:33.406Z,4.15
2023-04-20T18:19:01.710Z,3.50
2023-04-20T18:21:31.432Z,4.07
2023-04-20T18:24:00.385Z,3.67
2023-04-20T18:26:28.819Z,3.70
2023-04-20T18:28:58.655Z,4.18
2023-04-20T18:31:27.699Z,4.10
2023-04-20T18:33:56.135Z,4.43
2023-04-20T18:36:24.482Z,3.90
2023-04-20T18:38:53.952Z,4.15
2023-04-20T18:41:23.321Z,4.80
2023-04-20T18:43:54.331Z,4.25
2023-04-20T18:46:25.549Z,4.07
2023-04-20T18:48:53.989Z,4.18
2023-04-20T18:51:23.480Z,4.13
2023-04-20T18:53:52.796Z,4.32
2023-04-20T18:56:21.082Z,4.22
2023-04-20T18:58:49.403Z,4.75
2023-04-20T19:01:18.338Z,4.78
2023-04-20T19:03:48.377Z,4.75
2023-04-20T19:06:16.944Z,5.07
2023-04-20T19:08:45.370Z,4.10
2023-04-20T19:11:13.823Z,4.10
2023-04-20T19:13:44.637Z,4.03
2023-04-20T19:16:13.222Z,3.72
2023-04-20T19:18:41.995Z,4.00
2023-04-20T19:21:12.034Z,4.57
2023-04-20T19:23:40.423Z,4.20
2023-04-20T19:26:08.763Z,4.38
2023-04-20T19:28:37.050Z,4.35
2023-04-20T19:31:05.662Z,4.60
2023-04-20T19:33:34.003Z,4.35
2023-04-20T19:36:03.507Z,4.07
2023-04-20T19:38:34.543Z,4.18
2023-04-20T19:41:03.052Z,4.25
2023-04-20T19:43:32.456Z,4.07
2023-04-20T19:46:01.172Z,4.60
2023-04-20T19:48:29.695Z,4.85
2023-04-20T19:50:59.506Z,4.85
2023-04-20T19:53:27.871Z,4.65
2023-04-20T19:55:57.565Z,4.25
2023-04-20T19:58:25.940Z,4.10
2023-04-20T20:00:54.414Z,4.72
2023-04-20T20:03:23.245Z,5.13
2023-04-20T20:05:51.665Z,5.43
2023-04-20T20:08:20.049Z,4.90
2023-04-20T20:10:48.543Z,4.90
2023-04-20T20:13:18.239Z,5.03
2023-04-20T20:15:46.596Z,4.95
2023-04-20T20:18:15.226Z,4.53
2023-04-20T20:20:43.489Z,4.80
2023-04-20T20:23:12.550Z,4.78
2023-04-20T20:25:41.094Z,4.47
2023-04-20T20:28:09.514Z,4.25
2023-04-20T20:30:41.453Z,4.85
2023-04-20T20:33:09.866Z,4.20
2023-04-20T20:35:38.390Z,4.25
2023-04-20T20:38:07.783Z,4.68
2023-04-20T20:40:36.382Z,4.47
2023-04-20T20:43:05.083Z,4.70
2023-04-20T20:45:33.965Z,4.63
2023-04-20T20:48:07.545Z,4.43
2023-04-20T20:50:36.166Z,4.88
2023-04-20T20:53:04.516Z,4.45
2023-04-20T20:55:33.132Z,4.72
2023-04-20T20:58:01.674Z,4.53
2023-04-20T21:00:30.013Z,4.78
2023-04-20T21:02:58.949Z,4.47
2023-04-20T21:05:28.756Z,5.03
2023-04-20T21:07:57.171Z,4.45
2023-04-20T21:10:25.739Z,4.32
2023-04-20T21:12:54.124Z,3.70
2023-04-20T21:15:22.392Z,4.75
2023-04-20T21:17:50.922Z,4.90
2023-04-20T21:20:19.284Z,5.13
2023-04-20T21:22:48.896Z,4.60
2023-04-20T21:25:17.228Z,4.47
2023-04-20T21:27:45.593Z,4.60
2023-04-20T21:30:14.376Z,5.03
2023-04-20T21:32:42.773Z,5.05
2023-04-20T21:35:11.455Z,4.72
2023-04-20T21:37:39.766Z,4.78
2023-04-20T21:40:10.725Z,4.60
2023-04-20T21:42:39.088Z,4.43
2023-04-20T21:45:07.833Z,4.97
2023-04-20T21:47:36.436Z,5.75
2023-04-20T21:50:04.705Z,4.90
2023-04-20T21:52:32.972Z,5.15
2023-04-20T21:55:01.745Z,5.13
2023-04-20T21:57:31.603Z,5.35
2023-04-20T21:59:59.922Z,5.32
2023-04-20T22:02:28.844Z,5.00
2023-04-20T22:04:57.943Z,5.47
2023-04-20T22:07:27.564Z,5.00
2023-04-20T22:09:56.047Z,5.70
2023-04-20T22:12:38.482Z,5.45
2023-04-20T22:15:11.687Z,5.78
2023-04-20T22:17:40.537Z,5.50
2023-04-20T22:20:10.089Z,5.40
2023-04-20T22:22:39.463Z,5.00
2023-04-20T22:25:08.166Z,5.32
2023-04-20T22:27:37.728Z,5.15
2023-04-20T22:30:08.689Z,5.38
2023-04-20T22:32:38.605Z,5.93
2023-04-20T22:35:07.874Z,5.55
2023-04-20T22:37:36.308Z,5.78
2023-04-20T22:40:05.889Z,5.40
2023-04-20T22:42:34.787Z,6.22
2023-04-20T22:45:03.267Z,6.05
2023-04-20T22:47:32.387Z,6.65
2023-04-20T22:50:03.247Z,6.35
2023-04-20T22:52:34.910Z,6.95
2023-04-20T22:55:03.243Z,6.78
2023-04-20T22:57:31.919Z,6.50
2023-04-20T23:00:01.444Z,6.70
2023-04-20T23:02:30.051Z,6.75
2023-04-20T23:04:58.777Z,7.22
2023-04-20T23:07:28.805Z,7.28
2023-04-20T23:09:57.949Z,7.60
2023-04-20T23:12:26.732Z,7.03
2023-04-20T23:14:55.047Z,8.02
2023-04-20T23:17:23.581Z,7.55
2023-04-20T23:19:52.562Z,7.63
2023-04-20T23:22:20.839Z,7.38
2023-04-20T23:24:50.770Z,7.82
2023-04-20T23:27:19.190Z,7.50
2023-04-20T23:29:47.461Z,7.45
2023-04-20T23:32:16.115Z,8.02
2023-04-20T23:34:44.465Z,7.70
2023-04-20T23:37:13.282Z,8.25
2023-04-20T23:39:41.660Z,7.72
2023-04-20T23:42:11.479Z,6.63
2023-04-20T23:44:39.788Z,8.23
2023-04-20T23:47:08.192Z,7.70
2023-04-20T23:49:36.407Z,7.53
2023-04-20T23:52:04.704Z,8.93
2023-04-20T23:54:33.553Z,7.93
2023-04-20T23:57:02.728Z,8.18
2023-04-20T23:59:32.467Z,7.60
